createdAt,value
2016-12-23T00:08:06.598Z,0
2016-12-23T00:18:20.365Z,0
2016-12-23T00:28:35.006Z,0
2016-12-23T00:38:48.898Z,0
2016-12-23T00:49:03.320Z,0
2016-12-23T00:59:17.549Z,0
2016-12-23T01:09:31.534Z,0
2016-12-23T01:19:46.717Z,0
2016-12-23T01:30:01.462Z,0
2016-12-23T01:40:15.512Z,0
2016-12-23T01:50:29.607Z,0
2016-12-23T02:00:43.407Z,0
2016-12-23T02:10:56.509Z,0
2016-12-23T02:21:10.644Z,0
2016-12-23T02:31:25.637Z,0
2016-12-23T02:41:40.539Z,0
2016-12-23T02:51:55.162Z,0
2016-12-23T03:02:09.269Z,0
2016-12-23T03:12:23.572Z,0
2016-12-23T03:22:37.222Z,0
2016-12-23T03:32:50.795Z,0
2016-12-23T03:43:03.872Z,0
2016-12-23T03:53:17.769Z,0
2016-12-23T04:03:30.997Z,0
2016-12-23T04:13:45.462Z,0
2016-12-23T04:24:00.362Z,0
2016-12-23T04:34:15.016Z,0
2016-12-23T04:44:29.933Z,0
2016-12-23T04:54:44.282Z,0
2016-12-23T05:04:58.916Z,0
2016-12-23T05:15:13.694Z,0
2016-12-23T05:25:27.930Z,0
2016-12-23T05:35:42.250Z,0
2016-12-23T05:45:56.164Z,0
2016-12-23T05:56:11.015Z,0
2016-12-23T06:06:24.146Z,0
2016-12-23T06:16:39.120Z,0
2016-12-23T06:26:53.369Z,0
2016-12-23T06:37:07.803Z,0
2016-12-23T06:47:22.757Z,0
2016-12-23T07:07:52.131Z,12
2016-12-23T07:18:07.128Z,36
2016-12-23T07:28:20.162Z,108
2016-12-23T07:38:33.347Z,320
2016-12-23T07:48:47.905Z,888
2016-12-23T07:59:02.958Z,1200
2016-12-23T08:09:16.789Z,1844
2016-12-23T08:19:30.226Z,2992
2016-12-23T08:29:44.435Z,2376
2016-12-23T08:39:57.346Z,2544
2016-12-23T08:50:12.435Z,2292
2016-12-23T09:00:25.860Z,3876
2016-12-23T09:10:40.590Z,6876
2016-12-23T09:20:53.512Z,6288
2016-12-23T09:31:08.000Z,4912
2016-12-23T09:41:21.823Z,5828
2016-12-23T09:51:35.044Z,6676
2016-12-23T10:01:48.874Z,7096
2016-12-23T10:12:03.179Z,6220
2016-12-23T10:22:16.719Z,7996
2016-12-23T10:32:30.011Z,10280
2016-12-23T10:42:44.404Z,7584
2016-12-23T10:52:59.138Z,9564
2016-12-23T11:03:12.905Z,9584
2016-12-23T11:13:26.994Z,5792
2016-12-23T11:23:41.189Z,11464
2016-12-23T11:33:54.658Z,10560
2016-12-23T11:44:08.850Z,9904
2016-12-23T11:54:22.240Z,12408
2016-12-23T12:14:49.361Z,8572
2016-12-23T12:25:04.033Z,8728
2016-12-23T12:35:17.275Z,10516
2016-12-23T12:45:31.395Z,10272
2016-12-23T12:55:45.328Z,9392
2016-12-23T13:05:58.734Z,7764
2016-12-23T13:16:13.046Z,7828
2016-12-23T13:26:27.575Z,6972
2016-12-23T13:36:41.088Z,6452
2016-12-23T13:46:54.719Z,5920
2016-12-23T13:57:07.555Z,5768
2016-12-23T14:07:21.142Z,5816
2016-12-23T14:17:34.924Z,4484
2016-12-23T14:27:49.034Z,3488
2016-12-23T14:38:03.294Z,3228
2016-12-23T14:48:17.013Z,1976
2016-12-23T14:58:30.942Z,1104
2016-12-23T15:18:58.511Z,384
2016-12-23T15:29:12.287Z,180
2016-12-23T15:39:25.699Z,56
2016-12-23T15:49:40.813Z,12
2016-12-23T15:59:54.093Z,4
2016-12-23T16:10:08.194Z,0
2016-12-23T16:20:21.665Z,0
2016-12-23T16:30:36.411Z,0
2016-12-23T16:40:49.986Z,0
2016-12-23T16:51:04.213Z,0
2016-12-23T17:01:18.275Z,0
2016-12-23T17:11:32.118Z,0
2016-12-23T17:21:46.359Z,0
2016-12-23T17:32:00.396Z,0
2016-12-23T17:42:15.029Z,0
2016-12-23T17:52:29.093Z,0
2016-12-23T18:02:43.068Z,0
2016-12-23T18:12:57.848Z,0
2016-12-23T18:23:12.685Z,0
2016-12-23T18:33:27.358Z,0
2016-12-23T18:44:08.226Z,0
2016-12-23T18:53:55.697Z,0
2016-12-23T19:04:09.425Z,0
2016-12-23T19:14:23.842Z,0
2016-12-23T19:24:37.651Z,0
2016-12-23T19:34:51.587Z,0
2016-12-23T19:45:06.696Z,0
2016-12-23T19:55:20.660Z,0
2016-12-23T20:05:35.512Z,0
2016-12-23T20:15:48.854Z,0
2016-12-23T20:26:03.784Z,0
2016-12-23T20:36:18.138Z,0
2016-12-23T20:46:31.662Z,0
2016-12-23T20:56:45.675Z,0
2016-12-23T21:06:59.307Z,0
2016-12-23T21:17:13.718Z,0
2016-12-23T21:27:27.841Z,0
2016-12-23T21:37:41.917Z,0
2016-12-23T21:47:56.612Z,0
2016-12-23T21:58:10.084Z,0
2016-12-23T22:08:24.445Z,0
2016-12-23T22:18:37.739Z,0
2016-12-23T22:28:51.594Z,0
2016-12-23T22:39:05.124Z,0
2016-12-23T22:49:20.150Z,0
2016-12-23T22:59:34.292Z,0
2016-12-23T23:09:47.434Z,0
2016-12-23T23:20:02.369Z,0
2016-12-23T23:30:16.560Z,0
2016-12-23T23:40:30.028Z,0
2016-12-23T23:50:44.853Z,0
